createdAt,value
2018-07-19T00:00:13.704Z,19.21
2018-07-19T00:02:40.954Z,19.16
2018-07-19T00:05:08.172Z,19.18
2018-07-19T00:07:35.374Z,19.21
2018-07-19T00:10:02.591Z,19.16
2018-07-19T00:12:29.767Z,19.15
2018-07-19T00:14:57.027Z,19.02
2018-07-19T00:17:24.328Z,19.14
2018-07-19T00:19:51.534Z,19.06
2018-07-19T00:22:18.666Z,18.99
2018-07-19T00:24:45.878Z,19.03
2018-07-19T00:27:13.050Z,18.97
2018-07-19T00:29:40.180Z,18.91
2018-07-19T00:32:07.798Z,18.78
2018-07-19T00:34:35.039Z,18.77
2018-07-19T00:37:02.238Z,18.84
2018-07-19T00:39:29.415Z,18.91
2018-07-19T00:41:56.551Z,18.81
2018-07-19T00:44:23.859Z,18.73
2018-07-19T00:46:51.048Z,18.74
2018-07-19T00:49:18.229Z,18.73
2018-07-19T00:51:45.356Z,18.77
2018-07-19T00:54:12.541Z,18.76
2018-07-19T00:56:39.776Z,18.69
2018-07-19T00:59:06.972Z,18.66
2018-07-19T01:01:34.176Z,18.76
2018-07-19T01:04:01.380Z,18.64
2018-07-19T01:06:28.623Z,18.66
2018-07-19T01:08:55.992Z,18.70
2018-07-19T01:11:23.216Z,18.80
2018-07-19T01:13:50.366Z,18.75
2018-07-19T01:16:17.750Z,18.65
2018-07-19T01:18:44.893Z,18.53
2018-07-19T01:21:12.180Z,18.47
2018-07-19T01:23:39.713Z,18.51
2018-07-19T01:26:06.841Z,18.54
2018-07-19T01:28:34.053Z,18.55
2018-07-19T01:31:01.297Z,18.49
2018-07-19T01:33:28.531Z,18.33
2018-07-19T01:35:55.736Z,18.25
2018-07-19T01:38:23.284Z,18.25
2018-07-19T01:40:50.585Z,18.30
2018-07-19T01:43:17.784Z,18.22
2018-07-19T01:45:45.012Z,18.25
2018-07-19T01:48:12.136Z,18.26
2018-07-19T01:50:39.353Z,18.16
2018-07-19T01:53:06.884Z,18.12
2018-07-19T01:55:34.101Z,18.17
2018-07-19T01:58:01.297Z,18.19
2018-07-19T02:00:28.567Z,18.17
2018-07-19T02:02:55.793Z,18.21
2018-07-19T02:05:22.966Z,18.18
2018-07-19T02:07:50.241Z,18.12
2018-07-19T02:10:17.376Z,18.22
2018-07-19T02:12:44.548Z,18.12
2018-07-19T02:15:11.792Z,18.00
2018-07-19T02:17:38.959Z,18.10
2018-07-19T02:20:06.168Z,18.03
2018-07-19T02:22:33.771Z,17.90
2018-07-19T02:25:00.939Z,17.85
2018-07-19T02:27:28.213Z,17.85
2018-07-19T02:29:55.422Z,17.94
2018-07-19T02:32:22.640Z,17.91
2018-07-19T02:34:49.789Z,17.90
2018-07-19T02:37:17.076Z,17.85
2018-07-19T02:39:44.293Z,17.87
2018-07-19T02:42:11.435Z,17.83
2018-07-19T02:44:38.695Z,17.79
2018-07-19T02:47:05.826Z,17.73
2018-07-19T02:49:33.509Z,17.81
2018-07-19T02:52:01.031Z,17.71
2018-07-19T02:54:28.188Z,17.68
2018-07-19T02:56:55.417Z,17.70
2018-07-19T02:59:22.603Z,17.61
2018-07-19T03:01:49.824Z,17.66
2018-07-19T03:04:17.048Z,17.50
2018-07-19T03:06:44.212Z,17.63
2018-07-19T03:09:11.424Z,17.47
2018-07-19T03:11:38.568Z,17.49
2018-07-19T03:14:05.822Z,17.50
2018-07-19T03:16:33.051Z,17.49
2018-07-19T03:19:00.241Z,17.40
2018-07-19T03:21:27.591Z,17.42
2018-07-19T03:23:54.759Z,17.35
2018-07-19T03:26:21.932Z,17.37
2018-07-19T03:28:49.152Z,17.27
2018-07-19T03:31:16.285Z,17.27
2018-07-19T03:33:43.456Z,17.20
2018-07-19T03:36:10.636Z,17.18
2018-07-19T03:38:37.805Z,17.24
2018-07-19T03:41:05.160Z,17.16
2018-07-19T03:43:32.663Z,17.12
2018-07-19T03:45:59.840Z,17.08
2018-07-19T03:48:26.976Z,17.13
2018-07-19T03:50:54.211Z,17.18
2018-07-19T03:53:21.412Z,17.17
2018-07-19T03:55:48.564Z,17.16
2018-07-19T03:58:15.820Z,17.09
2018-07-19T04:00:42.952Z,17.15
2018-07-19T04:03:10.146Z,17.05
2018-07-19T04:05:37.425Z,17.13
2018-07-19T04:08:04.691Z,17.11
2018-07-19T04:10:31.893Z,17.14
2018-07-19T04:12:59.134Z,17.10
2018-07-19T04:15:26.303Z,17.11
2018-07-19T04:17:54.750Z,17.11
2018-07-19T04:20:23.115Z,17.12
2018-07-19T04:22:50.524Z,17.21
2018-07-19T04:25:17.782Z,17.15
2018-07-19T04:27:44.955Z,17.27
2018-07-19T04:30:12.069Z,17.17
2018-07-19T04:32:39.279Z,17.36
2018-07-19T04:35:06.644Z,17.33
2018-07-19T04:37:33.789Z,17.40
2018-07-19T04:40:00.976Z,17.49
2018-07-19T04:42:28.128Z,17.55
2018-07-19T04:44:55.368Z,17.54
2018-07-19T04:47:23.136Z,17.46
2018-07-19T04:49:50.267Z,17.51
2018-07-19T04:52:17.460Z,17.65
2018-07-19T04:54:44.691Z,17.76
2018-07-19T04:57:11.837Z,17.78
2018-07-19T04:59:38.949Z,17.78
2018-07-19T05:02:06.170Z,17.80
2018-07-19T05:04:34.010Z,17.89
2018-07-19T05:07:01.158Z,17.96
2018-07-19T05:09:28.337Z,18.05
2018-07-19T05:11:55.527Z,18.07
2018-07-19T05:14:22.737Z,18.20
2018-07-19T05:16:49.874Z,18.31
2018-07-19T05:19:17.064Z,18.34
2018-07-19T05:21:44.228Z,18.33
2018-07-19T05:24:11.341Z,18.38
2018-07-19T05:26:38.480Z,18.46
2018-07-19T05:29:05.675Z,18.57
2018-07-19T05:31:32.813Z,18.56
2018-07-19T05:33:59.996Z,18.66
2018-07-19T05:36:27.196Z,18.69
2018-07-19T05:38:54.398Z,18.83
2018-07-19T05:41:21.576Z,18.91
2018-07-19T05:43:49.539Z,18.89
2018-07-19T05:46:16.698Z,18.93
2018-07-19T05:48:43.828Z,19.09
2018-07-19T05:51:11.016Z,19.20
2018-07-19T05:53:38.150Z,19.37
2018-07-19T05:56:05.303Z,19.42
2018-07-19T05:58:32.464Z,19.54
2018-07-19T06:00:59.640Z,19.55
2018-07-19T06:03:26.865Z,19.68
2018-07-19T06:05:54.019Z,19.58
2018-07-19T06:08:21.288Z,19.70
2018-07-19T06:10:48.439Z,19.71
2018-07-19T06:13:15.592Z,19.74
2018-07-19T06:15:42.779Z,19.90
2018-07-19T06:18:09.918Z,19.95
2018-07-19T06:20:37.072Z,20.06
2018-07-19T06:23:04.405Z,20.11
2018-07-19T06:25:31.641Z,20.22
2018-07-19T06:27:58.844Z,20.16
2018-07-19T06:30:26.038Z,20.26
2018-07-19T06:32:53.176Z,20.35
2018-07-19T06:35:20.403Z,20.44
2018-07-19T06:37:47.557Z,20.50
2018-07-19T06:40:15.351Z,20.56
2018-07-19T06:42:42.523Z,20.68
2018-07-19T06:45:10.576Z,20.75
2018-07-19T06:47:37.717Z,20.79
2018-07-19T06:50:04.916Z,20.91
2018-07-19T06:52:32.117Z,21.00
2018-07-19T06:54:59.307Z,21.09
2018-07-19T06:57:26.569Z,21.21
2018-07-19T06:59:53.705Z,21.35
2018-07-19T07:02:20.873Z,21.44
2018-07-19T07:04:48.167Z,21.60
2018-07-19T07:07:15.319Z,21.69
2018-07-19T07:09:42.463Z,21.57
2018-07-19T07:12:09.739Z,21.55
2018-07-19T07:14:36.893Z,21.41
2018-07-19T07:17:04.216Z,21.59
2018-07-19T07:19:31.417Z,21.77
2018-07-19T07:21:58.575Z,22.08
2018-07-19T07:24:26.173Z,22.26
2018-07-19T07:26:53.417Z,22.23
2018-07-19T07:29:20.513Z,22.36
2018-07-19T07:31:47.684Z,22.59
2018-07-19T07:34:14.977Z,22.59
2018-07-19T07:36:42.114Z,22.71
2018-07-19T07:39:10.101Z,22.89
2018-07-19T07:41:37.300Z,22.69
2018-07-19T07:44:04.533Z,22.87
2018-07-19T07:46:31.693Z,22.93
2018-07-19T07:48:58.907Z,22.83
2018-07-19T07:51:26.073Z,22.77
2018-07-19T07:53:53.284Z,22.72
2018-07-19T07:56:20.509Z,22.83
2018-07-19T07:58:47.636Z,23.01
2018-07-19T08:01:14.777Z,23.28
2018-07-19T08:03:42.008Z,23.66
2018-07-19T08:06:09.199Z,23.48
2018-07-19T08:08:36.344Z,23.50
2018-07-19T08:11:03.598Z,23.34
2018-07-19T08:13:30.836Z,23.48
2018-07-19T08:15:58.026Z,23.42
2018-07-19T08:18:25.306Z,23.53
2018-07-19T08:20:52.508Z,23.79
2018-07-19T08:23:19.659Z,24.01
2018-07-19T08:25:46.849Z,23.87
2018-07-19T08:28:14.020Z,23.67
2018-07-19T08:30:41.174Z,23.50
2018-07-19T08:33:08.412Z,23.46
2018-07-19T08:35:35.559Z,23.53
2018-07-19T08:38:02.711Z,23.45
2018-07-19T08:40:29.939Z,23.64
2018-07-19T08:42:57.136Z,23.43
2018-07-19T08:45:24.319Z,23.50
2018-07-19T08:47:51.506Z,23.30
2018-07-19T08:50:18.664Z,23.34
2018-07-19T08:52:45.865Z,23.37
2018-07-19T08:55:13.132Z,23.25
2018-07-19T08:57:40.247Z,23.32
2018-07-19T09:00:08.416Z,23.35
2018-07-19T09:02:35.640Z,23.33
2018-07-19T09:05:02.833Z,23.43
2018-07-19T09:07:30.890Z,23.65
2018-07-19T09:09:58.109Z,23.43
2018-07-19T09:12:25.295Z,23.44
2018-07-19T09:14:52.450Z,23.28
2018-07-19T09:17:19.676Z,23.51
2018-07-19T09:19:46.842Z,23.24
2018-07-19T09:22:13.976Z,23.29
2018-07-19T09:24:41.184Z,23.12
2018-07-19T09:27:08.323Z,23.07
2018-07-19T09:29:35.461Z,22.94
2018-07-19T09:32:02.645Z,23.03
2018-07-19T09:34:29.807Z,23.14
2018-07-19T09:36:57.007Z,23.25
2018-07-19T09:39:24.222Z,23.43
2018-07-19T09:41:51.403Z,23.49
2018-07-19T09:44:18.549Z,23.56
2018-07-19T09:46:45.760Z,23.67
2018-07-19T09:49:12.916Z,23.53
2018-07-19T09:51:40.058Z,23.46
2018-07-19T09:54:07.241Z,23.38
2018-07-19T09:56:34.390Z,23.25
2018-07-19T09:59:01.564Z,23.48
2018-07-19T10:01:28.812Z,23.35
2018-07-19T10:03:56.022Z,23.40
2018-07-19T10:06:23.179Z,23.34
2018-07-19T10:08:50.510Z,23.34
2018-07-19T10:11:17.672Z,23.66
2018-07-19T10:13:45.276Z,23.90
2018-07-19T10:16:12.396Z,23.91
2018-07-19T10:18:39.614Z,24.03
2018-07-19T10:21:06.765Z,23.85
2018-07-19T10:23:34.227Z,23.68
2018-07-19T10:26:01.401Z,23.49
2018-07-19T10:28:28.690Z,23.69
2018-07-19T10:30:55.972Z,23.65
2018-07-19T10:33:23.093Z,23.83
2018-07-19T10:35:50.224Z,23.99
2018-07-19T10:38:17.472Z,24.10
2018-07-19T10:40:44.674Z,24.06
2018-07-19T10:43:11.798Z,24.05
2018-07-19T10:45:38.990Z,23.88
2018-07-19T10:48:06.158Z,23.98
2018-07-19T10:50:33.304Z,24.09
2018-07-19T10:53:00.506Z,23.95
2018-07-19T10:55:27.713Z,23.89
2018-07-19T10:57:54.868Z,23.75
2018-07-19T11:00:22.073Z,23.77
2018-07-19T11:02:49.233Z,23.75
2018-07-19T11:05:16.379Z,23.91
2018-07-19T11:07:43.544Z,24.03
2018-07-19T11:10:10.751Z,24.29
2018-07-19T11:12:37.874Z,24.65
2018-07-19T11:15:05.129Z,24.84
2018-07-19T11:17:32.674Z,24.93
2018-07-19T11:19:59.836Z,24.97
2018-07-19T11:22:27.028Z,25.03
2018-07-19T11:24:54.188Z,24.90
2018-07-19T11:27:21.332Z,24.95
2018-07-19T11:29:48.492Z,24.92
2018-07-19T11:32:15.632Z,25.08
2018-07-19T11:34:42.745Z,25.21
2018-07-19T11:37:09.918Z,25.48
2018-07-19T11:39:37.049Z,25.61
2018-07-19T11:42:04.186Z,25.75
2018-07-19T11:44:31.412Z,25.99
2018-07-19T11:46:58.595Z,26.11
2018-07-19T11:49:25.720Z,26.02
2018-07-19T11:51:52.884Z,25.96
2018-07-19T11:54:20.029Z,25.79
2018-07-19T11:56:47.163Z,25.95
2018-07-19T11:59:14.317Z,25.87
2018-07-19T12:01:41.454Z,26.12
2018-07-19T12:04:08.656Z,26.11
2018-07-19T12:06:35.892Z,26.00
2018-07-19T12:09:05.064Z,25.92
2018-07-19T12:11:32.285Z,25.75
2018-07-19T12:13:59.483Z,26.14
2018-07-19T12:16:26.649Z,26.14
2018-07-19T12:18:53.778Z,26.36
2018-07-19T12:21:20.965Z,26.51
2018-07-19T12:23:48.096Z,27.03
2018-07-19T12:26:15.216Z,27.02
2018-07-19T12:28:42.472Z,26.82
2018-07-19T12:31:09.610Z,27.30
2018-07-19T12:33:36.775Z,27.42
2018-07-19T12:36:04.043Z,27.55
2018-07-19T12:38:31.184Z,27.18
2018-07-19T12:40:58.392Z,27.55
2018-07-19T12:43:25.539Z,27.93
2018-07-19T12:45:52.732Z,28.28
2018-07-19T12:48:19.848Z,28.25
2018-07-19T12:50:47.119Z,28.14
2018-07-19T12:53:14.280Z,27.79
2018-07-19T12:55:41.402Z,27.18
2018-07-19T12:58:08.632Z,27.05
2018-07-19T13:00:35.793Z,27.14
2018-07-19T13:03:02.970Z,26.77
2018-07-19T13:05:30.187Z,27.10
2018-07-19T13:07:57.352Z,26.53
2018-07-19T13:10:24.468Z,26.55
2018-07-19T13:12:51.703Z,26.06
2018-07-19T13:15:18.865Z,26.64
2018-07-19T13:17:45.991Z,26.56
2018-07-19T13:20:13.204Z,26.86
2018-07-19T13:22:40.344Z,26.10
2018-07-19T13:25:07.505Z,26.30
2018-07-19T13:27:34.701Z,26.12
2018-07-19T13:30:01.866Z,26.81
2018-07-19T13:32:29.005Z,26.74
2018-07-19T13:34:56.260Z,26.60
2018-07-19T13:37:23.407Z,26.69
2018-07-19T13:39:50.540Z,26.35
2018-07-19T13:42:17.820Z,26.26
2018-07-19T13:44:44.956Z,25.78
2018-07-19T13:47:12.076Z,25.99
2018-07-19T13:49:39.815Z,25.78
2018-07-19T13:52:06.954Z,25.66
2018-07-19T13:54:41.653Z,25.66
2018-07-19T13:57:08.762Z,25.78
2018-07-19T13:59:35.913Z,25.87
2018-07-19T14:02:03.257Z,25.79
2018-07-19T14:04:30.371Z,25.91
2018-07-19T14:06:57.791Z,26.15
2018-07-19T14:09:24.973Z,25.96
2018-07-19T14:11:52.131Z,26.31
2018-07-19T14:14:19.424Z,26.68
2018-07-19T14:16:46.659Z,26.79
2018-07-19T14:19:13.808Z,26.85
2018-07-19T14:21:40.938Z,27.44
2018-07-19T14:24:08.119Z,27.71
2018-07-19T14:26:35.247Z,27.87
2018-07-19T14:29:02.464Z,27.98
2018-07-19T14:31:29.766Z,28.00
2018-07-19T14:33:56.928Z,28.13
2018-07-19T14:36:24.056Z,27.79
2018-07-19T14:38:51.283Z,27.85
2018-07-19T14:41:18.425Z,27.76
2018-07-19T14:43:45.532Z,27.75
2018-07-19T14:46:12.700Z,27.88
2018-07-19T14:48:39.832Z,28.13
2018-07-19T14:51:07.652Z,28.12
2018-07-19T14:53:34.842Z,29.05
2018-07-19T14:56:01.992Z,28.82
2018-07-19T14:58:29.188Z,29.59
2018-07-19T15:00:56.463Z,29.26
2018-07-19T15:03:23.580Z,29.31
2018-07-19T15:05:50.718Z,29.81
2018-07-19T15:08:17.905Z,29.56
2018-07-19T15:10:45.012Z,29.27
2018-07-19T15:13:12.133Z,29.35
2018-07-19T15:15:39.371Z,29.26
2018-07-19T15:18:06.496Z,29.77
2018-07-19T15:20:33.659Z,29.98
2018-07-19T15:23:00.919Z,30.71
2018-07-19T15:25:28.327Z,31.41
2018-07-19T15:27:55.439Z,31.77
2018-07-19T15:30:22.657Z,32.23
2018-07-19T15:32:50.065Z,33.33
2018-07-19T15:35:17.184Z,34.02
2018-07-19T15:37:44.398Z,35.77
2018-07-19T15:40:11.509Z,36.87
2018-07-19T15:42:38.632Z,37.90
2018-07-19T15:45:06.326Z,36.74
2018-07-19T15:47:33.550Z,37.84
2018-07-19T15:50:00.714Z,38.26
2018-07-19T15:52:27.920Z,39.26
2018-07-19T15:54:55.073Z,41.06
2018-07-19T15:57:22.216Z,42.24
2018-07-19T15:59:49.404Z,39.96
2018-07-19T16:02:16.533Z,40.47
2018-07-19T16:04:43.689Z,41.34
2018-07-19T16:07:10.939Z,41.46
2018-07-19T16:09:38.104Z,40.99
2018-07-19T16:12:05.253Z,39.27
2018-07-19T16:14:32.445Z,38.46
2018-07-19T16:16:59.708Z,39.14
2018-07-19T16:19:26.863Z,39.06
2018-07-19T16:21:54.025Z,36.87
2018-07-19T16:24:21.160Z,36.57
2018-07-19T16:26:48.324Z,36.64
2018-07-19T16:29:15.487Z,36.05
2018-07-19T16:31:42.622Z,35.99
2018-07-19T16:34:09.773Z,36.27
2018-07-19T16:36:37.064Z,34.91
2018-07-19T16:39:06.687Z,36.01
2018-07-19T16:41:33.873Z,36.63
2018-07-19T16:44:01.066Z,37.56
2018-07-19T16:46:28.281Z,37.95
2018-07-19T16:48:55.355Z,36.48
2018-07-19T16:51:22.511Z,35.00
2018-07-19T16:53:49.641Z,35.57
2018-07-19T16:56:16.756Z,35.96
2018-07-19T16:58:43.928Z,35.36
2018-07-19T17:01:11.061Z,33.99
2018-07-19T17:03:38.163Z,32.58
2018-07-19T17:06:05.477Z,31.48
2018-07-19T17:08:32.653Z,30.32
2018-07-19T17:10:59.800Z,29.71
2018-07-19T17:13:26.957Z,28.99
2018-07-19T17:15:54.112Z,28.31
2018-07-19T17:18:21.315Z,27.99
2018-07-19T17:20:48.582Z,27.59
2018-07-19T17:23:15.700Z,27.31
2018-07-19T17:25:42.820Z,26.87
2018-07-19T17:28:10.012Z,26.62
2018-07-19T17:30:37.127Z,26.38
2018-07-19T17:33:04.302Z,26.17
2018-07-19T17:35:31.488Z,25.99
2018-07-19T17:37:58.706Z,25.72
2018-07-19T17:40:26.161Z,25.52
2018-07-19T17:42:53.339Z,25.43
2018-07-19T17:45:20.552Z,25.21
2018-07-19T17:47:47.680Z,25.32
2018-07-19T17:50:14.852Z,25.04
2018-07-19T17:52:41.991Z,25.15
2018-07-19T17:55:09.137Z,25.12
2018-07-19T17:57:36.304Z,24.86
2018-07-19T18:00:03.709Z,24.78
2018-07-19T18:02:30.901Z,24.77
2018-07-19T18:04:58.235Z,24.71
2018-07-19T18:07:25.351Z,24.56
2018-07-19T18:09:52.475Z,24.55
2018-07-19T18:12:19.643Z,24.43
2018-07-19T18:14:46.822Z,24.42
2018-07-19T18:17:13.989Z,24.25
2018-07-19T18:19:41.196Z,24.11
2018-07-19T18:22:08.318Z,23.94
2018-07-19T18:24:35.461Z,23.84
2018-07-19T18:27:02.656Z,23.69
2018-07-19T18:29:29.841Z,23.58
2018-07-19T18:31:56.951Z,23.66
2018-07-19T18:34:24.204Z,23.52
2018-07-19T18:36:51.344Z,23.48
2018-07-19T18:39:18.505Z,23.48
2018-07-19T18:41:45.669Z,23.33
2018-07-19T18:44:12.765Z,23.23
2018-07-19T18:46:39.871Z,23.13
2018-07-19T18:49:07.040Z,23.17
2018-07-19T18:51:34.193Z,23.04
2018-07-19T18:54:01.335Z,22.88
2018-07-19T18:56:28.563Z,22.71
2018-07-19T18:58:55.745Z,22.61
2018-07-19T19:01:22.867Z,22.47
2018-07-19T19:03:50.692Z,22.38
2018-07-19T19:06:19.283Z,22.39
2018-07-19T19:08:44.972Z,22.21
2018-07-19T19:11:12.153Z,22.01
2018-07-19T19:13:39.312Z,21.77
2018-07-19T19:16:06.471Z,21.55
2018-07-19T19:18:33.664Z,21.34
2018-07-19T19:21:00.942Z,21.17
2018-07-19T19:23:28.113Z,20.91
2018-07-19T19:25:55.307Z,20.70
2018-07-19T19:28:22.531Z,20.55
2018-07-19T19:30:49.644Z,20.37
2018-07-19T19:33:16.864Z,20.19
2018-07-19T19:35:43.988Z,20.11
2018-07-19T19:38:11.115Z,20.01
2018-07-19T19:40:38.323Z,19.89
2018-07-19T19:43:05.536Z,19.79
2018-07-19T19:45:32.696Z,19.65
2018-07-19T19:48:00.220Z,19.59
2018-07-19T19:50:27.346Z,19.45
2018-07-19T19:52:54.453Z,19.34
2018-07-19T19:55:21.645Z,19.22
2018-07-19T19:57:48.759Z,19.08
2018-07-19T20:00:15.933Z,19.04
2018-07-19T20:02:43.172Z,18.95
2018-07-19T20:05:10.321Z,18.86
2018-07-19T20:07:38.521Z,18.78
2018-07-19T20:10:07.374Z,18.68
2018-07-19T20:12:34.549Z,18.61
2018-07-19T20:15:01.715Z,18.53
2018-07-19T20:17:28.914Z,18.47
2018-07-19T20:19:56.040Z,18.41
2018-07-19T20:22:23.216Z,18.33
2018-07-19T20:24:50.375Z,18.25
2018-07-19T20:27:17.521Z,18.21
2018-07-19T20:29:44.692Z,18.20
2018-07-19T20:32:11.961Z,18.14
2018-07-19T20:34:39.066Z,18.05
2018-07-19T20:37:06.208Z,18.00
2018-07-19T20:39:33.439Z,17.92
2018-07-19T20:42:00.810Z,17.82
2018-07-19T20:44:27.943Z,17.78
2018-07-19T20:46:55.097Z,17.71
2018-07-19T20:49:22.263Z,17.63
2018-07-19T20:51:49.381Z,17.57
2018-07-19T20:54:16.523Z,17.53
2018-07-19T20:56:43.650Z,17.46
2018-07-19T20:59:10.810Z,17.43
2018-07-19T21:01:37.988Z,17.36
2018-07-19T21:04:05.158Z,17.32
2018-07-19T21:06:32.288Z,17.25
2018-07-19T21:08:59.472Z,17.18
2018-07-19T21:11:26.610Z,17.15
2018-07-19T21:13:53.756Z,17.08
2018-07-19T21:16:20.892Z,17.02
2018-07-19T21:18:47.999Z,16.96
2018-07-19T21:21:15.172Z,16.88
2018-07-19T21:23:42.414Z,16.82
2018-07-19T21:26:09.573Z,16.78
2018-07-19T21:28:36.704Z,16.71
2018-07-19T21:31:03.901Z,16.63
2018-07-19T21:33:31.033Z,16.57
2018-07-19T21:35:58.144Z,16.54
2018-07-19T21:38:25.356Z,16.49
2018-07-19T21:40:52.475Z,16.43
2018-07-19T21:43:19.727Z,16.37
2018-07-19T21:45:46.887Z,16.30
2018-07-19T21:48:14.013Z,16.24
2018-07-19T21:50:41.153Z,16.20
2018-07-19T21:53:08.333Z,16.16
2018-07-19T21:55:35.500Z,16.10
2018-07-19T21:58:02.628Z,16.04
2018-07-19T22:00:30.284Z,15.99
2018-07-19T22:02:58.711Z,15.95
2018-07-19T22:05:25.850Z,15.90
2018-07-19T22:07:53.101Z,15.89
2018-07-19T22:10:20.225Z,15.85
2018-07-19T22:12:47.368Z,15.80
2018-07-19T22:15:14.541Z,15.74
2018-07-19T22:17:41.676Z,15.71
2018-07-19T22:20:08.792Z,15.64
2018-07-19T22:22:35.979Z,15.61
2018-07-19T22:25:03.343Z,15.56
2018-07-19T22:27:30.528Z,15.54
2018-07-19T22:29:57.700Z,15.47
2018-07-19T22:32:24.804Z,15.48
2018-07-19T22:34:51.936Z,15.43
2018-07-19T22:37:19.171Z,15.37
2018-07-19T22:39:46.304Z,15.32
2018-07-19T22:42:13.437Z,15.21
2018-07-19T22:44:40.646Z,15.20
2018-07-19T22:47:07.759Z,15.17
2018-07-19T22:49:34.895Z,15.12
2018-07-19T22:52:02.043Z,15.09
2018-07-19T22:54:29.156Z,15.05
2018-07-19T22:56:56.251Z,15.01
2018-07-19T22:59:23.419Z,15.03
2018-07-19T23:01:50.540Z,14.98
2018-07-19T23:04:17.637Z,14.97
2018-07-19T23:06:44.846Z,14.95
2018-07-19T23:09:11.984Z,14.91
2018-07-19T23:11:39.135Z,14.90
2018-07-19T23:14:06.303Z,14.85
2018-07-19T23:16:33.457Z,14.82
2018-07-19T23:19:00.596Z,14.78
2018-07-19T23:21:27.789Z,14.74
2018-07-19T23:23:54.899Z,14.68
2018-07-19T23:26:22.128Z,14.60
2018-07-19T23:28:49.348Z,14.52
2018-07-19T23:31:16.584Z,14.47
2018-07-19T23:33:43.760Z,14.44
2018-07-19T23:36:17.404Z,14.43
2018-07-19T23:38:48.405Z,14.45
2018-07-19T23:41:24.616Z,14.45
2018-07-19T23:43:55.840Z,14.41
2018-07-19T23:46:28.767Z,14.41
2018-07-19T23:48:57.325Z,14.37
2018-07-19T23:51:24.443Z,14.31
2018-07-19T23:53:51.611Z,14.26
2018-07-19T23:56:18.748Z,14.25
2018-07-19T23:58:45.875Z,14.26
